Flight Track Log - Related Links

Times and Time Zones

All times are in EDT time to prevent confusion due to time zone crossing. See the FIN368 flight status page for this flight to view local times or setup timezone preferences in your user account.

Time Position Orientation Groundspeed Altitude Reporting Facility
EDT Latitude Longitude Course Direction KTS MPH feet Rate Location/Type
Fri 11:13:00 AM 64.2718 25.2908 182° South  Level Estimated
Fri 11:14:00 AM 64.1505 25.2794 182° South  Level Estimated
Fri 11:15:00 AM 64.0292 25.2681 182° South  Level Estimated
Fri 11:16:00 AM 63.9080 25.2568 182° South  Level Estimated
Fri 11:17:00 AM 63.7867 25.2457 182° South  Level Estimated
Fri 11:18:00 AM 63.6654 25.2347 182° South  Level Estimated
Fri 11:19:00 AM 63.5442 25.2238 182° South  Level Estimated
Fri 11:20:00 AM 63.4229 25.2129 182° South  Level Estimated
Fri 11:21:00 AM 63.3016 25.2022 182° South  Level Estimated
Fri 11:22:00 AM 63.1803 25.1915 182° South  Level Estimated
Fri 11:23:00 AM 63.0591 25.1810 182° South  Level Estimated
Fri 11:24:00 AM 62.9378 25.1705 182° South  Level Estimated
Fri 11:25:00 AM 62.8165 25.1601 182° South  Level Estimated
Fri 11:26:00 AM 62.6952 25.1498 182° South  Level Estimated
Fri 11:27:00 AM 62.5740 25.1395 182° South  Level Estimated
Fri 11:28:00 AM 62.4527 25.1294 182° South  Level Estimated
Fri 11:29:00 AM 62.3314 25.1193 182° South  Level Estimated
Fri 11:30:00 AM 62.2101 25.1094 182° South  Level Estimated
Fri 11:31:00 AM 62.0888 25.0995 182° South  Level Estimated
Fri 11:32:00 AM 61.9676 25.0896 182° South  Level Estimated
Fri 11:33:00 AM 61.8463 25.0799 182° South  Level Estimated
Fri 11:34:00 AM 61.7250 25.0702 182° South  Level Estimated
Fri 11:35:00 AM 61.6037 25.0606 182° South  Level Estimated
Fri 11:36:00 AM 61.4824 25.0511 182° South  Level Estimated
Fri 11:37:00 AM 61.3611 25.0417 182° South  Level Estimated
Fri 11:38:00 AM 61.2399 25.0323 182° South  Level Estimated
Fri 11:39:00 AM 61.1186 25.0230 182° South  Level Estimated
Fri 11:40:00 AM 60.9973 25.0138 182° South  Level Estimated
Fri 11:41:00 AM 60.8760 25.0046 182° South  Level Estimated
Fri 11:42:00 AM 60.7547 24.9956 182° South  Level Estimated
Fri 11:43:00 AM 60.6334 24.9865 182° South  Level Estimated
Fri 11:44:00 AM 60.5121 24.9776 182° South  Level Estimated
Fri 11:45:00 AM 60.3909 24.9687 182° South  Level Estimated
Fri 11:46:00 AM 60.3172 24.9633 182° South  Level Estimated
Fri 11:47:00 AM 60.3172 24.9633 North  Level Estimated
Fri 11:48:00 AM 60.3172 24.9633 North  Level Estimated
Fri 11:49:00 AM 60.3172 24.9633 North  Level Estimated
Fri 11:50:00 AM 60.3172 24.9633 North  Level Estimated
Fri 11:51:00 AM 60.3172 24.9633 North  Level Estimated
Fri 11:52:00 AM 60.3172 24.9633 North  Level Estimated
Fri 11:53:00 AM 60.3172 24.9633 North  Level Estimated
Fri 11:54:00 AM 60.3172 24.9633 North  Level Estimated
Fri 11:55:00 AM 60.3172 24.9633 North  Level Estimated
Fri 11:56:00 AM 60.3172 24.9633 North  Level Estimated
Fri 11:57:00 AM 60.3172 24.9633 North  Level Estimated
Fri 11:58:00 AM 60.3172 24.9633 North  Level Estimated

Login

Don't have an account? Register now (free) for customized features, flight alerts, and more!